Estación de Polizones INIA

Ultimos registro cada 15 minutos 35
Estación Fecha / Hora Temperatura Humedad Lluvia Velocidad Dirección Radiación Presion
35 Polizones INIA 03-09-2026 08:30 3,9 95,9 0 0,1 64 84,2 1011
34 Polizones INIA 03-09-2026 08:15 3,5 96,3 0 0 0 51,8 1010
33 Polizones INIA 03-09-2026 08:00 3,1 96,4 0 0 0 36,1 1010
32 Polizones INIA 03-09-2026 07:45 2,6 96,5 0 0 0 19,9 1010
31 Polizones INIA 03-09-2026 07:30 2,2 96,1 0 0,1 64 8,4 1009
30 Polizones INIA 03-09-2026 07:15 2,4 95,3 0 0 0 2 1009
29 Polizones INIA 03-09-2026 07:00 3 94,8 0 0,6 64 0,3 1009
28 Polizones INIA 03-09-2026 06:45 3,4 95,3 0 0,2 64 0 1009
27 Polizones INIA 03-09-2026 06:30 3,4 95,5 0 0 0 0 1009
26 Polizones INIA 03-09-2026 06:15 3,3 95,5 0 0 0 0 1009
25 Polizones INIA 03-09-2026 06:00 3,1 96 0 0 0 0 1009
24 Polizones INIA 03-09-2026 05:45 3 95,8 0 0 0 0 1009
23 Polizones INIA 03-09-2026 05:30 2,9 96 0 0 0 0 1009
22 Polizones INIA 03-09-2026 05:15 2,8 96 0 0 0 0 1008
21 Polizones INIA 03-09-2026 05:00 2,6 95,9 0 0 74 0 1008
20 Polizones INIA 03-09-2026 04:45 2,5 95,6 0 0,1 64 0 1008
19 Polizones INIA 03-09-2026 04:30 2,4 96 0 0 0 0 1008
18 Polizones INIA 03-09-2026 04:15 2,2 95,7 0 0 0 0 1008
17 Polizones INIA 03-09-2026 04:00 2,4 95,5 0 0 0 0 1008
16 Polizones INIA 03-09-2026 03:45 2,3 95,4 0 0 0 0 1008
15 Polizones INIA 03-09-2026 03:30 1,7 95,6 0 0 0 0 1008
14 Polizones INIA 03-09-2026 03:15 1,2 95,4 0 0 72 0 1007
13 Polizones INIA 03-09-2026 03:00 0,9 94,6 0 0 0 0 1007
12 Polizones INIA 03-09-2026 02:45 1,5 93,5 0 0,1 73 0 1007
11 Polizones INIA 03-09-2026 02:30 1,6 94,1 0 0 0 0 1007
10 Polizones INIA 03-09-2026 02:15 1,5 94,5 0 0 0 0 1007
9 Polizones INIA 03-09-2026 02:00 1,6 93,6 0 0 0 0 1007
8 Polizones INIA 03-09-2026 01:45 1,5 93,4 0 0 0 0 1007
7 Polizones INIA 03-09-2026 01:30 1,7 92,9 0 0 0 0 1007
6 Polizones INIA 03-09-2026 01:15 1,6 92,6 0 0 0 0 1006
5 Polizones INIA 03-09-2026 01:00 1,7 91,7 0 0 0 0 1006
4 Polizones INIA 03-09-2026 00:45 1,8 90,5 0 0 0 0 1006
3 Polizones INIA 03-09-2026 00:30 1,9 89,2 0 0 0 0 1006
2 Polizones INIA 03-09-2026 00:15 2,4 89 0 0 0 0 1006
1 Polizones INIA 03-09-2026 00:00 2,8 85,5 0 0,1 96 0 1006